Portada
METAR-TAF:

METAR-TAF

Aeroports :

Puerto Cabezas, Nicaragua

latitud: 14-03N, longitud: 083-22W, altitud: 20 m

Observació

L'informe es va fer fa 31 minuts, a les 12:00 UTC
Vent 4 kt del Est
Temperatura 28°C
Humitat 94%
Pressió 1011 hPa
Visibilitat: 7000 m
Núvols disperses a una alçada de 1600 ft
calitja

METAR: MNPC 151200Z 09004KT 7000 SCT016 28/27 Q1011 HZ

Hora: 06:31 (12:31 UTC)

Pronòstic

L'informe es va fer fa 14 hores i 20 minuts, a les 22:11 UTC
Pronòstic vàlid del 15 a les 00 UTC al 15 a les 24 UTC
Vent 4 kt del Nord/Nord-Est
Visibilitat: 5000 m
Núvols disperses a una alçada de 1600 ft
Núvols disperses a una alçada de 30000 ft
Escasses núvols a una alçada de 1400 ft, Cumulonimbus.
Cel ennuvolat a una alçada de 1600 ft
calitja
Temporalment
l' 15 a les 11 UTC al 15 a les 16 UTC
Vent 10 kt del Est
Cel ennuvolat a una alçada de 1600 ft

TAF: MNPC 142211Z 1500/1524 09008KT 7000 HZ SCT016 SCT300 TEMP0 1504/1510 02004KT 5000 -TSRA/DZ FEW014CB BKN016 TEMPO 1511/1516 08010KT 700 HZ/VCRA BKN016

Observacions i pronòstics meteorològics de més de 4000 aeroports (METAR i TAF).

Les estacions disponibles són els punts grocs i vermells al mapa.

Posi el ratolí al punt desitjat per veure el nom de l'estació.

Feu clic per veure les observacions i els pronòstics meteorològics.

Per canviar el mapa: feu clic els botons verds amb una creu de color negre per apropar; al botó verd amb un guió per allunyar la imatge; o en les fletxes verdes per a mapes adjacents.


METAR-TAF: